sensor_id;sensor_type;location;lat;lon;timestamp;P1;durP1;ratioP1;P2;durP2;ratioP2
77051;SDS011;65980;44.898;8.602;2023-11-21T00:00:07;53.92;;;31.92;;
77051;SDS011;65980;44.898;8.602;2023-11-21T00:03:22;55.13;;;34.13;;
77051;SDS011;65980;44.898;8.602;2023-11-21T00:06:29;56.10;;;34.42;;
77051;SDS011;65980;44.898;8.602;2023-11-21T00:09:34;57.72;;;34.38;;
77051;SDS011;65980;44.898;8.602;2023-11-21T00:12:45;59.47;;;35.05;;
77051;SDS011;65980;44.898;8.602;2023-11-21T00:15:52;60.63;;;36.05;;
77051;SDS011;65980;44.898;8.602;2023-11-21T00:19:03;61.38;;;36.67;;
77051;SDS011;65980;44.898;8.602;2023-11-21T00:22:13;62.67;;;41.22;;
77051;SDS011;65980;44.898;8.602;2023-11-21T00:25:16;64.07;;;39.50;;
77051;SDS011;65980;44.898;8.602;2023-11-21T00:28:21;67.60;;;41.00;;
77051;SDS011;65980;44.898;8.602;2023-11-21T00:31:26;68.45;;;41.08;;
77051;SDS011;65980;44.898;8.602;2023-11-21T00:34:31;65.80;;;41.53;;
77051;SDS011;65980;44.898;8.602;2023-11-21T00:37:35;68.53;;;41.58;;
77051;SDS011;65980;44.898;8.602;2023-11-21T00:40:46;71.32;;;42.90;;
77051;SDS011;65980;44.898;8.602;2023-11-21T00:43:50;66.63;;;43.55;;
77051;SDS011;65980;44.898;8.602;2023-11-21T00:46:57;70.07;;;42.45;;
77051;SDS011;65980;44.898;8.602;2023-11-21T00:50:05;75.38;;;44.17;;
77051;SDS011;65980;44.898;8.602;2023-11-21T00:53:12;71.55;;;44.53;;
77051;SDS011;65980;44.898;8.602;2023-11-21T00:56:17;68.78;;;42.17;;
77051;SDS011;65980;44.898;8.602;2023-11-21T00:59:21;77.88;;;44.70;;
77051;SDS011;65980;44.898;8.602;2023-11-21T01:02:35;70.30;;;44.85;;
77051;SDS011;65980;44.898;8.602;2023-11-21T01:05:40;72.93;;;45.53;;
77051;SDS011;65980;44.898;8.602;2023-11-21T01:08:49;70.72;;;45.08;;
77051;SDS011;65980;44.898;8.602;2023-11-21T01:11:54;72.50;;;44.45;;
77051;SDS011;65980;44.898;8.602;2023-11-21T01:14:58;73.32;;;46.58;;
77051;SDS011;65980;44.898;8.602;2023-11-21T01:18:05;69.75;;;45.50;;
77051;SDS011;65980;44.898;8.602;2023-11-21T01:21:15;69.60;;;45.72;;
77051;SDS011;65980;44.898;8.602;2023-11-21T01:24:20;71.93;;;44.70;;
77051;SDS011;65980;44.898;8.602;2023-11-21T01:27:23;77.32;;;46.97;;
77051;SDS011;65980;44.898;8.602;2023-11-21T01:30:28;77.72;;;47.08;;
77051;SDS011;65980;44.898;8.602;2023-11-21T01:33:34;77.35;;;49.83;;
77051;SDS011;65980;44.898;8.602;2023-11-21T01:36:41;80.68;;;51.28;;
77051;SDS011;65980;44.898;8.602;2023-11-21T01:39:48;85.55;;;52.40;;
77051;SDS011;65980;44.898;8.602;2023-11-21T01:42:53;87.20;;;52.40;;
77051;SDS011;65980;44.898;8.602;2023-11-21T01:46:03;82.03;;;51.38;;
77051;SDS011;65980;44.898;8.602;2023-11-21T01:49:21;92.72;;;53.95;;
77051;SDS011;65980;44.898;8.602;2023-11-21T01:52:32;78.28;;;50.75;;
77051;SDS011;65980;44.898;8.602;2023-11-21T01:55:38;77.93;;;48.65;;
77051;SDS011;65980;44.898;8.602;2023-11-21T01:58:53;76.45;;;49.22;;
77051;SDS011;65980;44.898;8.602;2023-11-21T02:02:01;81.97;;;48.95;;
77051;SDS011;65980;44.898;8.602;2023-11-21T02:05:23;75.18;;;47.13;;
77051;SDS011;65980;44.898;8.602;2023-11-21T02:08:30;76.32;;;49.35;;
77051;SDS011;65980;44.898;8.602;2023-11-21T02:11:35;73.85;;;47.28;;
77051;SDS011;65980;44.898;8.602;2023-11-21T02:14:45;77.70;;;47.35;;
77051;SDS011;65980;44.898;8.602;2023-11-21T02:17:51;78.50;;;49.50;;
77051;SDS011;65980;44.898;8.602;2023-11-21T02:20:58;84.78;;;50.15;;
77051;SDS011;65980;44.898;8.602;2023-11-21T02:24:15;82.65;;;51.78;;
77051;SDS011;65980;44.898;8.602;2023-11-21T02:27:28;82.05;;;51.08;;
77051;SDS011;65980;44.898;8.602;2023-11-21T02:30:33;89.82;;;51.85;;
77051;SDS011;65980;44.898;8.602;2023-11-21T02:33:38;83.43;;;52.95;;
77051;SDS011;65980;44.898;8.602;2023-11-21T02:36:43;84.85;;;53.72;;
77051;SDS011;65980;44.898;8.602;2023-11-21T02:39:50;88.78;;;54.53;;
77051;SDS011;65980;44.898;8.602;2023-11-21T02:42:55;88.38;;;52.78;;
77051;SDS011;65980;44.898;8.602;2023-11-21T02:46:03;80.88;;;50.72;;
77051;SDS011;65980;44.898;8.602;2023-11-21T02:49:09;94.63;;;52.22;;
77051;SDS011;65980;44.898;8.602;2023-11-21T02:52:23;85.63;;;51.88;;
77051;SDS011;65980;44.898;8.602;2023-11-21T02:55:28;80.00;;;49.92;;
77051;SDS011;65980;44.898;8.602;2023-11-21T02:58:55;81.45;;;50.58;;
77051;SDS011;65980;44.898;8.602;2023-11-21T03:02:03;89.18;;;52.75;;
77051;SDS011;65980;44.898;8.602;2023-11-21T03:05:11;88.63;;;52.30;;
77051;SDS011;65980;44.898;8.602;2023-11-21T03:08:15;94.25;;;54.60;;
77051;SDS011;65980;44.898;8.602;2023-11-21T03:11:22;91.60;;;55.45;;
77051;SDS011;65980;44.898;8.602;2023-11-21T03:14:27;83.13;;;51.15;;
77051;SDS011;65980;44.898;8.602;2023-11-21T03:17:35;89.72;;;51.50;;
77051;SDS011;65980;44.898;8.602;2023-11-21T03:20:41;86.60;;;52.60;;
77051;SDS011;65980;44.898;8.602;2023-11-21T03:23:51;87.20;;;53.42;;
77051;SDS011;65980;44.898;8.602;2023-11-21T03:26:56;84.90;;;53.45;;
77051;SDS011;65980;44.898;8.602;2023-11-21T03:30:01;85.47;;;51.72;;
77051;SDS011;65980;44.898;8.602;2023-11-21T03:33:08;85.97;;;51.30;;
77051;SDS011;65980;44.898;8.602;2023-11-21T03:36:14;80.78;;;50.60;;
77051;SDS011;65980;44.898;8.602;2023-11-21T03:39:22;83.03;;;51.13;;
77051;SDS011;65980;44.898;8.602;2023-11-21T03:42:36;78.55;;;47.97;;
77051;SDS011;65980;44.898;8.602;2023-11-21T03:45:44;78.57;;;48.13;;
77051;SDS011;65980;44.898;8.602;2023-11-21T03:48:49;78.35;;;47.45;;
77051;SDS011;65980;44.898;8.602;2023-11-21T03:51:57;75.20;;;45.97;;
77051;SDS011;65980;44.898;8.602;2023-11-21T03:55:01;75.70;;;47.08;;
77051;SDS011;65980;44.898;8.602;2023-11-21T03:58:11;79.32;;;48.30;;
77051;SDS011;65980;44.898;8.602;2023-11-21T04:01:20;77.55;;;47.42;;
77051;SDS011;65980;44.898;8.602;2023-11-21T04:04:29;82.50;;;48.08;;
77051;SDS011;65980;44.898;8.602;2023-11-21T04:07:36;81.53;;;48.00;;
77051;SDS011;65980;44.898;8.602;2023-11-21T04:10:46;83.93;;;49.63;;
77051;SDS011;65980;44.898;8.602;2023-11-21T04:13:50;88.60;;;50.65;;
77051;SDS011;65980;44.898;8.602;2023-11-21T04:16:55;83.35;;;50.05;;
77051;SDS011;65980;44.898;8.602;2023-11-21T04:20:11;79.68;;;48.60;;
77051;SDS011;65980;44.898;8.602;2023-11-21T04:23:19;71.55;;;46.80;;
77051;SDS011;65980;44.898;8.602;2023-11-21T04:26:24;72.38;;;46.25;;
77051;SDS011;65980;44.898;8.602;2023-11-21T04:29:34;78.70;;;47.42;;
77051;SDS011;65980;44.898;8.602;2023-11-21T04:32:38;79.30;;;48.97;;
77051;SDS011;65980;44.898;8.602;2023-11-21T04:35:50;83.22;;;50.40;;
77051;SDS011;65980;44.898;8.602;2023-11-21T04:38:54;82.72;;;49.67;;
77051;SDS011;65980;44.898;8.602;2023-11-21T04:41:59;84.53;;;50.22;;
77051;SDS011;65980;44.898;8.602;2023-11-21T04:45:04;79.60;;;47.78;;
77051;SDS011;65980;44.898;8.602;2023-11-21T04:48:28;79.93;;;47.90;;
77051;SDS011;65980;44.898;8.602;2023-11-21T04:51:36;79.43;;;46.42;;
77051;SDS011;65980;44.898;8.602;2023-11-21T04:54:45;83.35;;;48.05;;
77051;SDS011;65980;44.898;8.602;2023-11-21T04:57:57;75.28;;;47.55;;
77051;SDS011;65980;44.898;8.602;2023-11-21T05:01:05;77.50;;;48.83;;
77051;SDS011;65980;44.898;8.602;2023-11-21T05:04:10;84.72;;;48.63;;
77051;SDS011;65980;44.898;8.602;2023-11-21T05:10:56;81.78;;;49.28;;
77051;SDS011;65980;44.898;8.602;2023-11-21T05:14:01;91.35;;;50.60;;
77051;SDS011;65980;44.898;8.602;2023-11-21T05:17:41;87.55;;;51.45;;
77051;SDS011;65980;44.898;8.602;2023-11-21T05:20:48;87.78;;;51.13;;
77051;SDS011;65980;44.898;8.602;2023-11-21T05:23:53;86.35;;;51.13;;
77051;SDS011;65980;44.898;8.602;2023-11-21T05:26:58;87.80;;;51.35;;
77051;SDS011;65980;44.898;8.602;2023-11-21T05:30:15;89.18;;;49.78;;
77051;SDS011;65980;44.898;8.602;2023-11-21T05:33:22;86.85;;;51.60;;
77051;SDS011;65980;44.898;8.602;2023-11-21T05:36:29;79.43;;;47.00;;
77051;SDS011;65980;44.898;8.602;2023-11-21T05:39:39;79.78;;;47.67;;
77051;SDS011;65980;44.898;8.602;2023-11-21T05:42:48;84.90;;;47.60;;
77051;SDS011;65980;44.898;8.602;2023-11-21T05:45:58;73.53;;;46.22;;
77051;SDS011;65980;44.898;8.602;2023-11-21T05:49:04;83.85;;;47.00;;
77051;SDS011;65980;44.898;8.602;2023-11-21T05:52:09;79.65;;;47.80;;
77051;SDS011;65980;44.898;8.602;2023-11-21T05:55:19;80.22;;;47.03;;
77051;SDS011;65980;44.898;8.602;2023-11-21T05:58:31;82.88;;;48.28;;
77051;SDS011;65980;44.898;8.602;2023-11-21T06:01:37;81.03;;;48.55;;
77051;SDS011;65980;44.898;8.602;2023-11-21T06:05:11;77.32;;;47.10;;
77051;SDS011;65980;44.898;8.602;2023-11-21T06:08:16;84.95;;;49.63;;
77051;SDS011;65980;44.898;8.602;2023-11-21T06:11:26;80.40;;;48.22;;
77051;SDS011;65980;44.898;8.602;2023-11-21T06:14:37;84.85;;;49.05;;
77051;SDS011;65980;44.898;8.602;2023-11-21T06:17:45;83.05;;;49.75;;
77051;SDS011;65980;44.898;8.602;2023-11-21T06:21:00;88.88;;;50.08;;
77051;SDS011;65980;44.898;8.602;2023-11-21T06:24:05;83.57;;;49.38;;
77051;SDS011;65980;44.898;8.602;2023-11-21T06:27:11;85.78;;;52.60;;
77051;SDS011;65980;44.898;8.602;2023-11-21T06:30:21;88.32;;;53.20;;
77051;SDS011;65980;44.898;8.602;2023-11-21T06:33:39;88.22;;;52.22;;
77051;SDS011;65980;44.898;8.602;2023-11-21T06:36:44;93.90;;;51.95;;
77051;SDS011;65980;44.898;8.602;2023-11-21T06:39:49;89.38;;;51.72;;
77051;SDS011;65980;44.898;8.602;2023-11-21T06:42:58;89.35;;;51.13;;
77051;SDS011;65980;44.898;8.602;2023-11-21T06:46:08;86.63;;;52.03;;
77051;SDS011;65980;44.898;8.602;2023-11-21T06:49:18;84.07;;;50.27;;
77051;SDS011;65980;44.898;8.602;2023-11-21T06:52:24;83.50;;;49.85;;
77051;SDS011;65980;44.898;8.602;2023-11-21T06:55:29;83.13;;;49.17;;
77051;SDS011;65980;44.898;8.602;2023-11-21T06:59:04;85.70;;;51.20;;
77051;SDS011;65980;44.898;8.602;2023-11-21T07:02:15;83.00;;;48.10;;
77051;SDS011;65980;44.898;8.602;2023-11-21T07:05:32;80.50;;;47.75;;
77051;SDS011;65980;44.898;8.602;2023-11-21T07:08:40;87.40;;;49.20;;
77051;SDS011;65980;44.898;8.602;2023-11-21T07:11:48;87.45;;;50.53;;
77051;SDS011;65980;44.898;8.602;2023-11-21T07:14:53;86.93;;;49.08;;
77051;SDS011;65980;44.898;8.602;2023-11-21T07:17:57;81.07;;;48.92;;
77051;SDS011;65980;44.898;8.602;2023-11-21T07:21:02;79.90;;;47.05;;
77051;SDS011;65980;44.898;8.602;2023-11-21T07:24:08;75.07;;;47.13;;
77051;SDS011;65980;44.898;8.602;2023-11-21T07:27:15;70.72;;;45.30;;
77051;SDS011;65980;44.898;8.602;2023-11-21T07:30:25;79.15;;;46.65;;
77051;SDS011;65980;44.898;8.602;2023-11-21T07:33:59;72.10;;;45.00;;
77051;SDS011;65980;44.898;8.602;2023-11-21T07:37:07;72.20;;;45.33;;
77051;SDS011;65980;44.898;8.602;2023-11-21T07:40:15;73.07;;;45.47;;
77051;SDS011;65980;44.898;8.602;2023-11-21T07:43:20;71.95;;;44.15;;
77051;SDS011;65980;44.898;8.602;2023-11-21T07:50:41;67.35;;;42.53;;
77051;SDS011;65980;44.898;8.602;2023-11-21T07:53:51;66.03;;;42.53;;
77051;SDS011;65980;44.898;8.602;2023-11-21T07:57:09;74.97;;;42.30;;
77051;SDS011;65980;44.898;8.602;2023-11-21T08:00:17;71.97;;;43.00;;
77051;SDS011;65980;44.898;8.602;2023-11-21T08:03:22;71.03;;;44.05;;
77051;SDS011;65980;44.898;8.602;2023-11-21T08:06:27;68.75;;;41.33;;
77051;SDS011;65980;44.898;8.602;2023-11-21T08:09:32;78.07;;;43.63;;
77051;SDS011;65980;44.898;8.602;2023-11-21T08:12:41;79.75;;;44.13;;
77051;SDS011;65980;44.898;8.602;2023-11-21T08:15:46;73.72;;;43.05;;
77051;SDS011;65980;44.898;8.602;2023-11-21T08:18:50;71.78;;;44.10;;
77051;SDS011;65980;44.898;8.602;2023-11-21T08:21:55;71.03;;;42.60;;
77051;SDS011;65980;44.898;8.602;2023-11-21T08:24:59;74.72;;;44.90;;
77051;SDS011;65980;44.898;8.602;2023-11-21T08:28:03;68.63;;;42.28;;
77051;SDS011;65980;44.898;8.602;2023-11-21T08:31:11;63.75;;;40.50;;
77051;SDS011;65980;44.898;8.602;2023-11-21T08:34:15;64.45;;;40.63;;
77051;SDS011;65980;44.898;8.602;2023-11-21T08:37:19;65.35;;;41.00;;
77051;SDS011;65980;44.898;8.602;2023-11-21T08:40:32;67.75;;;41.97;;
77051;SDS011;65980;44.898;8.602;2023-11-21T08:43:38;64.75;;;40.00;;
77051;SDS011;65980;44.898;8.602;2023-11-21T08:46:46;70.75;;;42.67;;
77051;SDS011;65980;44.898;8.602;2023-11-21T08:49:50;68.60;;;40.90;;
77051;SDS011;65980;44.898;8.602;2023-11-21T08:52:58;67.22;;;41.13;;
77051;SDS011;65980;44.898;8.602;2023-11-21T08:56:03;70.18;;;41.45;;
77051;SDS011;65980;44.898;8.602;2023-11-21T08:59:08;67.63;;;42.78;;
77051;SDS011;65980;44.898;8.602;2023-11-21T09:02:14;71.07;;;44.15;;
77051;SDS011;65980;44.898;8.602;2023-11-21T09:05:18;71.38;;;43.13;;
77051;SDS011;65980;44.898;8.602;2023-11-21T09:08:24;71.03;;;43.05;;
77051;SDS011;65980;44.898;8.602;2023-11-21T09:11:28;81.28;;;45.03;;
77051;SDS011;65980;44.898;8.602;2023-11-21T09:14:37;71.03;;;42.83;;
77051;SDS011;65980;44.898;8.602;2023-11-21T09:17:41;79.82;;;45.47;;
77051;SDS011;65980;44.898;8.602;2023-11-21T09:20:47;76.78;;;45.00;;
77051;SDS011;65980;44.898;8.602;2023-11-21T09:23:52;75.28;;;45.10;;
77051;SDS011;65980;44.898;8.602;2023-11-21T09:26:58;74.82;;;44.15;;
77051;SDS011;65980;44.898;8.602;2023-11-21T09:30:03;73.65;;;44.45;;
77051;SDS011;65980;44.898;8.602;2023-11-21T09:33:10;70.10;;;43.13;;
77051;SDS011;65980;44.898;8.602;2023-11-21T09:36:14;68.50;;;42.78;;
77051;SDS011;65980;44.898;8.602;2023-11-21T09:39:18;69.68;;;43.15;;
77051;SDS011;65980;44.898;8.602;2023-11-21T09:45:54;73.40;;;43.45;;
77051;SDS011;65980;44.898;8.602;2023-11-21T09:49:03;71.40;;;44.05;;
77051;SDS011;65980;44.898;8.602;2023-11-21T09:52:09;77.05;;;44.30;;
77051;SDS011;65980;44.898;8.602;2023-11-21T09:55:22;69.20;;;43.47;;
77051;SDS011;65980;44.898;8.602;2023-11-21T09:58:30;68.82;;;41.42;;
77051;SDS011;65980;44.898;8.602;2023-11-21T10:01:38;67.35;;;42.50;;
77051;SDS011;65980;44.898;8.602;2023-11-21T10:04:44;69.93;;;43.15;;
77051;SDS011;65980;44.898;8.602;2023-11-21T10:07:52;70.38;;;42.58;;
77051;SDS011;65980;44.898;8.602;2023-11-21T10:11:01;69.28;;;41.70;;
77051;SDS011;65980;44.898;8.602;2023-11-21T10:14:10;68.95;;;43.28;;
77051;SDS011;65980;44.898;8.602;2023-11-21T10:17:17;70.22;;;42.53;;
77051;SDS011;65980;44.898;8.602;2023-11-21T10:20:23;66.57;;;41.20;;
77051;SDS011;65980;44.898;8.602;2023-11-21T10:23:30;70.38;;;44.13;;
77051;SDS011;65980;44.898;8.602;2023-11-21T10:26:35;70.05;;;42.42;;
77051;SDS011;65980;44.898;8.602;2023-11-21T10:29:40;65.85;;;42.70;;
77051;SDS011;65980;44.898;8.602;2023-11-21T10:32:45;69.63;;;42.08;;
77051;SDS011;65980;44.898;8.602;2023-11-21T10:35:50;67.70;;;41.70;;
77051;SDS011;65980;44.898;8.602;2023-11-21T10:38:55;66.28;;;41.05;;
77051;SDS011;65980;44.898;8.602;2023-11-21T10:42:01;68.80;;;40.97;;
77051;SDS011;65980;44.898;8.602;2023-11-21T10:45:07;70.60;;;44.17;;
77051;SDS011;65980;44.898;8.602;2023-11-21T10:48:21;74.78;;;45.15;;
77051;SDS011;65980;44.898;8.602;2023-11-21T10:51:25;74.35;;;45.88;;
77051;SDS011;65980;44.898;8.602;2023-11-21T10:54:29;84.07;;;47.58;;
77051;SDS011;65980;44.898;8.602;2023-11-21T11:00:37;73.72;;;43.97;;
77051;SDS011;65980;44.898;8.602;2023-11-21T11:03:44;73.55;;;44.08;;
77051;SDS011;65980;44.898;8.602;2023-11-21T11:07:02;69.88;;;43.08;;
77051;SDS011;65980;44.898;8.602;2023-11-21T11:10:07;69.57;;;45.17;;
77051;SDS011;65980;44.898;8.602;2023-11-21T11:13:19;75.65;;;44.38;;
77051;SDS011;65980;44.898;8.602;2023-11-21T11:16:24;82.22;;;47.63;;
77051;SDS011;65980;44.898;8.602;2023-11-21T11:19:29;73.00;;;45.38;;
77051;SDS011;65980;44.898;8.602;2023-11-21T11:22:39;76.15;;;44.75;;
77051;SDS011;65980;44.898;8.602;2023-11-21T11:32:47;73.70;;;43.95;;
77051;SDS011;65980;44.898;8.602;2023-11-21T11:39:44;74.70;;;44.97;;
77051;SDS011;65980;44.898;8.602;2023-11-21T11:42:58;71.10;;;42.90;;
77051;SDS011;65980;44.898;8.602;2023-11-21T11:46:06;77.93;;;47.47;;
77051;SDS011;65980;44.898;8.602;2023-11-21T11:49:24;77.38;;;45.88;;
77051;SDS011;65980;44.898;8.602;2023-11-21T11:52:31;74.95;;;45.08;;
77051;SDS011;65980;44.898;8.602;2023-11-21T11:55:36;73.05;;;44.47;;
77051;SDS011;65980;44.898;8.602;2023-11-21T11:58:43;74.70;;;46.08;;
77051;SDS011;65980;44.898;8.602;2023-11-21T12:01:48;80.63;;;44.90;;
77051;SDS011;65980;44.898;8.602;2023-11-21T12:04:55;71.80;;;45.40;;
77051;SDS011;65980;44.898;8.602;2023-11-21T12:08:02;75.13;;;46.00;;
77051;SDS011;65980;44.898;8.602;2023-11-21T12:11:07;72.95;;;43.40;;
77051;SDS011;65980;44.898;8.602;2023-11-21T12:14:11;72.78;;;42.35;;
77051;SDS011;65980;44.898;8.602;2023-11-21T12:17:17;68.22;;;42.10;;
77051;SDS011;65980;44.898;8.602;2023-11-21T12:20:21;68.63;;;40.13;;
77051;SDS011;65980;44.898;8.602;2023-11-21T12:23:28;58.78;;;36.45;;
77051;SDS011;65980;44.898;8.602;2023-11-21T12:26:33;53.38;;;28.15;;
77051;SDS011;65980;44.898;8.602;2023-11-21T12:29:37;45.38;;;24.17;;
77051;SDS011;65980;44.898;8.602;2023-11-21T12:32:43;50.45;;;27.48;;
77051;SDS011;65980;44.898;8.602;2023-11-21T12:35:50;54.58;;;27.63;;
77051;SDS011;65980;44.898;8.602;2023-11-21T12:38:55;57.55;;;32.70;;
77051;SDS011;65980;44.898;8.602;2023-11-21T12:42:00;51.42;;;30.52;;
77051;SDS011;65980;44.898;8.602;2023-11-21T12:45:09;43.25;;;26.33;;
77051;SDS011;65980;44.898;8.602;2023-11-21T12:48:21;51.70;;;28.73;;
77051;SDS011;65980;44.898;8.602;2023-11-21T12:51:28;51.47;;;29.63;;
77051;SDS011;65980;44.898;8.602;2023-11-21T12:54:34;51.35;;;29.20;;
77051;SDS011;65980;44.898;8.602;2023-11-21T12:57:41;49.50;;;27.42;;
77051;SDS011;65980;44.898;8.602;2023-11-21T13:00:49;44.72;;;25.33;;
77051;SDS011;65980;44.898;8.602;2023-11-21T13:04:02;45.90;;;26.08;;
77051;SDS011;65980;44.898;8.602;2023-11-21T13:07:08;52.35;;;25.38;;
77051;SDS011;65980;44.898;8.602;2023-11-21T13:10:18;45.67;;;25.55;;
77051;SDS011;65980;44.898;8.602;2023-11-21T13:13:23;50.90;;;25.98;;
77051;SDS011;65980;44.898;8.602;2023-11-21T13:16:33;50.17;;;25.70;;
77051;SDS011;65980;44.898;8.602;2023-11-21T13:19:42;50.90;;;27.70;;
77051;SDS011;65980;44.898;8.602;2023-11-21T13:25:55;63.33;;;30.20;;
77051;SDS011;65980;44.898;8.602;2023-11-21T13:28:59;52.92;;;29.58;;
77051;SDS011;65980;44.898;8.602;2023-11-21T13:32:02;51.38;;;29.73;;
77051;SDS011;65980;44.898;8.602;2023-11-21T13:35:10;51.10;;;28.80;;
77051;SDS011;65980;44.898;8.602;2023-11-21T13:38:25;50.72;;;27.38;;
77051;SDS011;65980;44.898;8.602;2023-11-21T13:41:34;47.38;;;27.23;;
77051;SDS011;65980;44.898;8.602;2023-11-21T13:44:37;55.58;;;27.98;;
77051;SDS011;65980;44.898;8.602;2023-11-21T13:47:49;46.80;;;27.92;;
77051;SDS011;65980;44.898;8.602;2023-11-21T13:51:01;48.08;;;27.35;;
77051;SDS011;65980;44.898;8.602;2023-11-21T13:54:19;54.70;;;27.67;;
77051;SDS011;65980;44.898;8.602;2023-11-21T13:57:25;49.78;;;27.92;;
77051;SDS011;65980;44.898;8.602;2023-11-21T14:00:31;51.97;;;28.73;;
77051;SDS011;65980;44.898;8.602;2023-11-21T14:03:51;50.72;;;27.88;;
77051;SDS011;65980;44.898;8.602;2023-11-21T14:07:04;47.35;;;27.80;;
77051;SDS011;65980;44.898;8.602;2023-11-21T14:10:24;52.08;;;27.00;;
77051;SDS011;65980;44.898;8.602;2023-11-21T14:13:30;48.00;;;27.27;;
77051;SDS011;65980;44.898;8.602;2023-11-21T14:16:35;47.15;;;26.75;;
77051;SDS011;65980;44.898;8.602;2023-11-21T14:19:40;57.55;;;27.63;;
77051;SDS011;65980;44.898;8.602;2023-11-21T14:22:46;44.60;;;25.00;;
77051;SDS011;65980;44.898;8.602;2023-11-21T14:25:51;45.75;;;25.77;;
77051;SDS011;65980;44.898;8.602;2023-11-21T14:28:56;55.05;;;25.98;;
77051;SDS011;65980;44.898;8.602;2023-11-21T14:32:01;49.42;;;26.20;;
77051;SDS011;65980;44.898;8.602;2023-11-21T14:35:05;47.78;;;25.52;;
77051;SDS011;65980;44.898;8.602;2023-11-21T14:38:10;51.38;;;26.75;;
77051;SDS011;65980;44.898;8.602;2023-11-21T14:41:15;51.35;;;25.95;;
77051;SDS011;65980;44.898;8.602;2023-11-21T14:44:20;49.15;;;25.63;;
77051;SDS011;65980;44.898;8.602;2023-11-21T14:47:26;54.17;;;27.42;;
77051;SDS011;65980;44.898;8.602;2023-11-21T14:50:32;54.15;;;27.60;;
77051;SDS011;65980;44.898;8.602;2023-11-21T14:53:40;45.25;;;26.33;;
77051;SDS011;65980;44.898;8.602;2023-11-21T14:57:09;54.25;;;28.65;;
77051;SDS011;65980;44.898;8.602;2023-11-21T15:00:22;53.55;;;29.58;;
77051;SDS011;65980;44.898;8.602;2023-11-21T15:03:47;57.55;;;29.70;;
77051;SDS011;65980;44.898;8.602;2023-11-21T15:06:53;54.05;;;29.13;;
77051;SDS011;65980;44.898;8.602;2023-11-21T15:10:01;56.95;;;28.40;;
77051;SDS011;65980;44.898;8.602;2023-11-21T15:13:08;54.20;;;29.20;;
77051;SDS011;65980;44.898;8.602;2023-11-21T15:16:15;53.63;;;29.63;;
77051;SDS011;65980;44.898;8.602;2023-11-21T15:19:19;55.25;;;29.83;;
77051;SDS011;65980;44.898;8.602;2023-11-21T15:22:31;57.78;;;31.75;;
77051;SDS011;65980;44.898;8.602;2023-11-21T15:25:37;53.95;;;29.85;;
77051;SDS011;65980;44.898;8.602;2023-11-21T15:28:43;57.22;;;30.98;;
77051;SDS011;65980;44.898;8.602;2023-11-21T15:31:48;52.80;;;30.38;;
77051;SDS011;65980;44.898;8.602;2023-11-21T15:34:53;54.30;;;31.08;;
77051;SDS011;65980;44.898;8.602;2023-11-21T15:37:57;59.20;;;30.73;;
77051;SDS011;65980;44.898;8.602;2023-11-21T15:41:03;56.38;;;31.70;;
77051;SDS011;65980;44.898;8.602;2023-11-21T15:44:09;61.00;;;31.05;;
77051;SDS011;65980;44.898;8.602;2023-11-21T15:47:15;61.22;;;32.08;;
77051;SDS011;65980;44.898;8.602;2023-11-21T15:50:20;63.72;;;33.17;;
77051;SDS011;65980;44.898;8.602;2023-11-21T15:53:25;61.80;;;32.47;;
77051;SDS011;65980;44.898;8.602;2023-11-21T15:56:28;60.15;;;33.78;;
77051;SDS011;65980;44.898;8.602;2023-11-21T15:59:33;64.85;;;33.28;;
77051;SDS011;65980;44.898;8.602;2023-11-21T16:02:37;60.58;;;33.55;;
77051;SDS011;65980;44.898;8.602;2023-11-21T16:05:42;58.40;;;32.63;;
77051;SDS011;65980;44.898;8.602;2023-11-21T16:08:46;61.92;;;33.42;;
77051;SDS011;65980;44.898;8.602;2023-11-21T16:11:52;58.72;;;33.60;;
77051;SDS011;65980;44.898;8.602;2023-11-21T16:15:01;59.97;;;32.03;;
77051;SDS011;65980;44.898;8.602;2023-11-21T16:18:11;58.50;;;32.03;;
77051;SDS011;65980;44.898;8.602;2023-11-21T16:21:15;63.80;;;33.55;;
77051;SDS011;65980;44.898;8.602;2023-11-21T16:24:20;64.95;;;32.90;;
77051;SDS011;65980;44.898;8.602;2023-11-21T16:27:24;68.47;;;33.78;;
77051;SDS011;65980;44.898;8.602;2023-11-21T16:30:31;67.15;;;33.83;;
77051;SDS011;65980;44.898;8.602;2023-11-21T16:33:36;59.97;;;32.65;;
77051;SDS011;65980;44.898;8.602;2023-11-21T16:36:41;63.28;;;32.75;;
77051;SDS011;65980;44.898;8.602;2023-11-21T16:39:47;63.08;;;32.17;;
77051;SDS011;65980;44.898;8.602;2023-11-21T16:42:52;66.60;;;33.88;;
77051;SDS011;65980;44.898;8.602;2023-11-21T16:49:00;66.43;;;34.28;;
77051;SDS011;65980;44.898;8.602;2023-11-21T16:52:05;61.10;;;34.70;;
77051;SDS011;65980;44.898;8.602;2023-11-21T16:55:12;70.38;;;33.55;;
77051;SDS011;65980;44.898;8.602;2023-11-21T16:58:24;65.50;;;35.75;;
77051;SDS011;65980;44.898;8.602;2023-11-21T17:01:30;72.45;;;36.47;;
77051;SDS011;65980;44.898;8.602;2023-11-21T17:04:35;65.68;;;36.90;;
77051;SDS011;65980;44.898;8.602;2023-11-21T17:07:45;69.70;;;36.40;;
77051;SDS011;65980;44.898;8.602;2023-11-21T17:10:50;74.68;;;36.97;;
77051;SDS011;65980;44.898;8.602;2023-11-21T17:13:55;81.53;;;37.30;;
77051;SDS011;65980;44.898;8.602;2023-11-21T17:17:00;72.15;;;37.95;;
77051;SDS011;65980;44.898;8.602;2023-11-21T17:20:05;72.88;;;37.33;;
77051;SDS011;65980;44.898;8.602;2023-11-21T17:23:11;68.90;;;37.10;;
77051;SDS011;65980;44.898;8.602;2023-11-21T17:26:16;75.53;;;38.63;;
77051;SDS011;65980;44.898;8.602;2023-11-21T17:29:20;79.78;;;39.20;;
77051;SDS011;65980;44.898;8.602;2023-11-21T17:32:25;84.43;;;39.85;;
77051;SDS011;65980;44.898;8.602;2023-11-21T17:35:30;75.78;;;41.13;;
77051;SDS011;65980;44.898;8.602;2023-11-21T17:38:38;75.22;;;39.38;;
77051;SDS011;65980;44.898;8.602;2023-11-21T17:41:42;76.78;;;40.00;;
77051;SDS011;65980;44.898;8.602;2023-11-21T17:44:46;81.53;;;40.22;;
77051;SDS011;65980;44.898;8.602;2023-11-21T17:47:51;76.22;;;40.90;;
77051;SDS011;65980;44.898;8.602;2023-11-21T17:50:56;75.38;;;39.08;;
77051;SDS011;65980;44.898;8.602;2023-11-21T17:54:01;77.50;;;41.22;;
77051;SDS011;65980;44.898;8.602;2023-11-21T17:57:07;79.38;;;39.08;;
77051;SDS011;65980;44.898;8.602;2023-11-21T18:00:15;72.63;;;38.83;;
77051;SDS011;65980;44.898;8.602;2023-11-21T18:03:19;69.72;;;38.63;;
77051;SDS011;65980;44.898;8.602;2023-11-21T18:06:24;74.82;;;37.88;;
77051;SDS011;65980;44.898;8.602;2023-11-21T18:09:29;81.78;;;40.55;;
77051;SDS011;65980;44.898;8.602;2023-11-21T18:12:33;79.78;;;40.58;;
77051;SDS011;65980;44.898;8.602;2023-11-21T18:15:37;78.88;;;41.05;;
77051;SDS011;65980;44.898;8.602;2023-11-21T18:18:42;78.82;;;40.13;;
77051;SDS011;65980;44.898;8.602;2023-11-21T18:24:51;75.38;;;38.50;;
77051;SDS011;65980;44.898;8.602;2023-11-21T18:27:58;78.15;;;41.38;;
77051;SDS011;65980;44.898;8.602;2023-11-21T18:31:06;76.00;;;40.40;;
77051;SDS011;65980;44.898;8.602;2023-11-21T18:34:10;75.43;;;41.13;;
77051;SDS011;65980;44.898;8.602;2023-11-21T18:37:18;75.70;;;39.92;;
77051;SDS011;65980;44.898;8.602;2023-11-21T18:40:23;78.18;;;43.10;;
77051;SDS011;65980;44.898;8.602;2023-11-21T18:43:29;82.40;;;43.13;;
77051;SDS011;65980;44.898;8.602;2023-11-21T18:46:37;85.40;;;41.60;;
77051;SDS011;65980;44.898;8.602;2023-11-21T18:49:42;75.18;;;40.00;;